LFRN 121530Z AUTO 26010KT 9999 SCT011 BKN016 OVC024 10/09 Q1028 TEMPO 3000 RADZ BKN006

ElémentsDécodage
LFRN Station météo située sur l'aérodrome de RENNES Saint-Jacques
121530Z émis le 12 du mois à 15h30 UTC
AUTO Bulletin édité par un automate
26010KT vent du 260°, 10 noeuds
9999 visibilité horizontale supérieure à 10 Km
SCT011 nuages épars (3/8 à 4/8) à 1100 pieds
BKN016 nuages morcelés (5/8 à 7/8) à 1600 pieds
OVC024 couverture nuageuse totale (8/8) à 2400 pieds
10/09 température 10°C, point de rosée 09°C
 soit une humidité relative de 94%
Q1028 la pression au niveau de la mer (QNH) est de 1028 hPa
TEMPO fluctuation temporaire prévue
3000 visibilité horizontale de 3000 mètres
RADZ pluie, bruine
BKN006 nuages morcelés (5/8 à 7/8) à 600 pieds